Time;durP1;ratioP1;P1;durP2;ratioP2;P2;SDS_P1;SDS_P2;PMS_P1;PMS_P2;Temp;Humidity;BMP_temperature;BMP_pressure;BME280_temperature;BME280_humidity;BME280_pressure;Samples;Min_cycle;Max_cycle;Signal;HPM_P1;HPM_P2
2021/01/11 00:00:19;;;;;;;36.97;23.57;;;4.40;99.90;;;;;;5019243;28;20175;-90
2021/01/11 00:02:45;;;;;;;35.13;23.63;;;4.30;99.90;;;;;;5021755;28;20535;-90
2021/01/11 00:05:13;;;;;;;37.73;23.23;;;4.40;99.90;;;;;;5055024;28;20180;-91
2021/01/11 00:07:43;;;;;;;38.47;23.30;;;4.40;99.90;;;;;;5053129;28;20232;-90
2021/01/11 00:10:13;;;;;;;34.93;23.93;;;4.50;99.90;;;;;;5035104;28;20177;-90
2021/01/11 00:12:40;;;;;;;38.83;24.17;;;4.60;99.90;;;;;;5018128;28;20177;-89
2021/01/11 00:15:08;;;;;;;34.50;23.70;;;4.60;99.90;;;;;;5018197;28;20168;-90
2021/01/11 00:17:34;;;;;;;40.70;24.03;;;4.60;99.90;;;;;;5000781;28;20177;-90
2021/01/11 00:20:01;;;;;;;38.57;24.10;;;4.60;99.90;;;;;;5000543;28;20331;-90
2021/01/11 00:22:27;;;;;;;38.97;22.97;;;4.60;99.90;;;;;;5030956;28;20191;-90
2021/01/11 00:24:52;;;;;;;39.13;23.43;;;4.50;99.90;;;;;;5051521;28;20176;-90
2021/01/11 00:27:21;;;;;;;39.37;23.20;;;4.50;99.90;;;;;;5025543;28;20684;-90
2021/01/11 00:29:46;;;;;;;35.97;22.87;;;4.40;99.90;;;;;;5016622;28;20223;-90
2021/01/11 00:32:12;;;;;;;36.27;23.47;;;4.40;99.90;;;;;;5016787;28;20619;-90
2021/01/11 00:34:38;;;;;;;36.17;22.80;;;4.30;99.90;;;;;;5032894;28;20192;-90
2021/01/11 00:37:04;;;;;;;43.77;25.43;;;4.40;99.90;;;;;;5016479;28;20298;-90
2021/01/11 00:39:29;;;;;;;40.83;25.53;;;4.50;99.90;;;;;;5019146;28;20700;-89
2021/01/11 00:42:00;;;;;;;43.23;25.17;;;4.60;99.90;;;;;;4999610;28;20674;-90
2021/01/11 00:44:26;;;;;;;42.07;24.57;;;4.70;99.90;;;;;;5016461;28;20177;-90
2021/01/11 00:46:57;;;;;;;43.53;25.77;;;4.60;99.90;;;;;;5033242;28;20176;-90
2021/01/11 00:49:23;;;;;;;41.47;23.97;;;4.50;99.90;;;;;;5025287;28;20191;-89
2021/01/11 00:51:48;;;;;;;46.23;24.97;;;4.50;99.90;;;;;;5036295;28;20176;-90
2021/01/11 00:54:14;;;;;;;39.00;23.83;;;4.50;99.90;;;;;;5049755;28;20185;-90
2021/01/11 00:56:40;;;;;;;45.70;25.60;;;4.60;99.90;;;;;;5016800;28;20390;-91
2021/01/11 00:59:06;;;;;;;41.13;25.37;;;4.70;99.90;;;;;;5005705;28;20188;-90
2021/01/11 01:01:33;;;;;;;41.57;25.63;;;4.80;99.90;;;;;;5036330;28;20215;-90
2021/01/11 01:03:59;;;;;;;42.37;24.57;;;4.90;99.90;;;;;;5036137;28;20164;-90
2021/01/11 01:06:28;;;;;;;45.73;26.37;;;4.90;99.90;;;;;;5036777;28;20183;-90
2021/01/11 01:08:54;;;;;;;41.40;23.87;;;4.80;99.90;;;;;;5032871;28;20164;-90
2021/01/11 01:11:19;;;;;;;44.43;25.33;;;4.80;99.90;;;;;;5033377;28;20179;-91
2021/01/11 01:13:48;;;;;;;41.63;24.40;;;4.80;99.90;;;;;;5035638;28;20187;-91
2021/01/11 01:16:26;;;;;;;41.50;24.30;;;4.90;99.90;;;;;;5033030;28;20637;-91
2021/01/11 01:18:52;;;;;;;43.40;25.17;;;4.90;99.90;;;;;;5017262;28;20203;-91
2021/01/11 01:21:18;;;;;;;46.77;24.67;;;4.90;99.90;;;;;;5016402;28;20217;-92
2021/01/11 01:23:46;;;;;;;48.90;25.57;;;4.90;99.90;;;;;;5015994;28;20179;-91
2021/01/11 01:26:12;;;;;;;46.23;25.27;;;4.80;99.90;;;;;;5028798;28;20184;-90
2021/01/11 01:28:47;;;;;;;43.70;23.70;;;4.80;99.90;;;;;;5052461;28;20168;-91
2021/01/11 01:31:13;;;;;;;47.37;24.50;;;4.70;99.90;;;;;;5035589;28;20160;-91
2021/01/11 01:33:38;;;;;;;49.87;26.13;;;4.60;99.90;;;;;;5035406;28;20195;-91
2021/01/11 01:36:04;;;;;;;43.43;25.43;;;4.60;99.90;;;;;;5032215;28;20192;-91
2021/01/11 01:38:30;;;;;;;38.27;23.07;;;4.60;99.90;;;;;;4983712;28;20177;-92
2021/01/11 01:40:56;;;;;;;50.73;25.47;;;4.70;99.90;;;;;;5015976;28;20205;-91
2021/01/11 01:43:22;;;;;;;43.27;23.53;;;4.70;99.90;;;;;;4998974;28;20644;-92
2021/01/11 01:45:47;;;;;;;46.20;23.33;;;4.70;99.90;;;;;;4999350;28;20179;-91
2021/01/11 01:48:13;;;;;;;39.70;24.43;;;4.80;99.90;;;;;;4999251;28;20173;-91
2021/01/11 01:50:41;;;;;;;43.77;25.20;;;4.80;99.90;;;;;;4983272;28;20243;-91
2021/01/11 01:53:07;;;;;;;41.93;24.77;;;4.80;99.90;;;;;;5022046;28;20267;-91
2021/01/11 01:55:35;;;;;;;37.70;23.07;;;4.80;99.90;;;;;;5031940;28;20658;-90
2021/01/11 01:58:04;;;;;;;40.70;24.03;;;4.90;99.90;;;;;;5016701;28;20256;-91
2021/01/11 02:00:30;;;;;;;35.20;23.83;;;4.90;99.90;;;;;;5032504;28;20176;-91
2021/01/11 02:02:55;;;;;;;43.03;25.17;;;4.90;99.90;;;;;;4999302;28;20576;-91
2021/01/11 02:05:21;;;;;;;40.70;24.17;;;4.90;99.90;;;;;;4982918;28;20271;-91
2021/01/11 02:08:10;;;;;;;42.87;24.90;;;5.00;99.90;;;;;;4982456;28;20645;-91
2021/01/11 02:10:45;;;;;;;44.50;23.93;;;5.10;99.90;;;;;;5008616;28;20634;-91
2021/01/11 02:13:17;;;;;;;39.43;24.73;;;5.10;99.90;;;;;;5016560;28;20161;-91
2021/01/11 02:16:02;;;;;;;36.57;23.57;;;5.00;99.90;;;;;;5015062;28;20172;-93
2021/01/11 02:18:46;;;;;;;40.07;23.83;;;5.00;99.90;;;;;;5031813;28;20176;-92
2021/01/11 02:21:33;;;;;;;40.20;25.80;;;4.90;99.90;;;;;;5016175;28;20193;-92
2021/01/11 02:24:30;;;;;;;40.07;25.50;;;4.80;99.90;;;;;;5015697;28;20168;-93
2021/01/11 02:27:33;;;;;;;34.87;23.83;;;4.70;99.90;;;;;;5051564;28;20169;-92
2021/01/11 02:29:58;;;;;;;39.37;25.13;;;4.70;99.90;;;;;;5031119;28;20207;-93
2021/01/11 02:32:25;;;;;;;39.40;25.33;;;4.70;99.90;;;;;;5035460;28;20183;-92
2021/01/11 02:34:52;;;;;;;41.83;26.33;;;4.70;99.90;;;;;;5052683;28;20238;-92
2021/01/11 02:37:19;;;;;;;42.00;24.97;;;4.70;99.90;;;;;;5072170;28;20196;-92
2021/01/11 02:39:45;;;;;;;43.07;26.10;;;4.70;99.90;;;;;;5055334;28;20168;-93
2021/01/11 02:42:13;;;;;;;41.50;25.83;;;4.70;99.90;;;;;;5033992;28;20235;-92
2021/01/11 02:44:42;;;;;;;44.77;26.23;;;4.80;99.90;;;;;;5016046;28;20180;-92
2021/01/11 02:47:08;;;;;;;38.67;25.93;;;4.80;99.90;;;;;;5015708;28;20176;-92
2021/01/11 02:49:47;;;;;;;39.20;25.73;;;4.80;99.90;;;;;;5031448;28;20687;-92
2021/01/11 02:52:29;;;;;;;36.13;24.47;;;4.80;99.90;;;;;;5043250;28;20203;-91
2021/01/11 02:55:05;;;;;;;37.77;25.97;;;4.80;99.90;;;;;;5036157;28;20165;-91
2021/01/11 02:57:39;;;;;;;36.87;24.03;;;4.70;99.90;;;;;;5045889;28;20164;-92
2021/01/11 03:00:09;;;;;;;38.60;23.30;;;4.80;99.90;;;;;;5014606;28;20255;-91
2021/01/11 03:02:43;;;;;;;41.97;25.00;;;4.80;99.90;;;;;;4982026;28;20209;-91
2021/01/11 03:05:12;;;;;;;40.63;24.87;;;4.90;99.90;;;;;;5023613;28;20202;-92
2021/01/11 03:07:37;;;;;;;40.30;25.40;;;4.90;99.90;;;;;;5034380;28;20179;-92
2021/01/11 03:10:04;;;;;;;41.67;25.60;;;4.80;99.90;;;;;;5035125;28;20171;-92
2021/01/11 03:12:31;;;;;;;40.27;26.17;;;4.80;99.90;;;;;;5034461;28;20180;-92
2021/01/11 03:14:56;;;;;;;38.90;23.67;;;4.90;99.90;;;;;;5034668;28;20172;-91
2021/01/11 03:17:22;;;;;;;37.17;24.20;;;4.80;99.90;;;;;;5034323;28;20176;-92
2021/01/11 03:19:48;;;;;;;38.17;25.10;;;4.80;99.90;;;;;;5038207;28;20175;-91
2021/01/11 03:22:14;;;;;;;38.07;25.20;;;4.70;99.90;;;;;;5032246;28;20199;-92
2021/01/11 03:24:40;;;;;;;34.90;23.30;;;4.70;99.90;;;;;;5014174;28;20179;-92
2021/01/11 03:27:06;;;;;;;40.03;25.07;;;4.70;99.90;;;;;;5015629;28;20179;-91
2021/01/11 03:29:34;;;;;;;34.43;24.20;;;4.60;99.90;;;;;;5014219;28;20646;-92
2021/01/11 03:32:00;;;;;;;41.40;25.50;;;4.70;99.90;;;;;;5014793;28;20180;-91
2021/01/11 03:34:25;;;;;;;41.07;25.93;;;4.60;99.90;;;;;;5014356;28;20211;-89
2021/01/11 03:36:51;;;;;;;39.57;24.40;;;4.60;99.90;;;;;;5031509;28;20230;-91
2021/01/11 03:39:17;;;;;;;37.63;23.87;;;4.60;99.90;;;;;;5030908;28;20172;-91
2021/01/11 03:41:46;;;;;;;37.73;25.77;;;4.50;99.90;;;;;;5027259;28;20200;-92
2021/01/11 03:44:12;;;;;;;35.97;24.33;;;4.50;99.90;;;;;;5050341;28;20179;-92
2021/01/11 03:46:37;;;;;;;38.43;24.93;;;4.40;99.90;;;;;;5027586;28;20176;-92
2021/01/11 03:49:03;;;;;;;40.03;25.00;;;4.40;99.90;;;;;;5014871;28;20176;-91
2021/01/11 03:51:29;;;;;;;34.20;24.57;;;4.40;99.90;;;;;;5021143;28;20180;-91
2021/01/11 03:53:55;;;;;;;38.37;24.33;;;4.40;99.90;;;;;;4997610;28;20176;-92
2021/01/11 03:56:21;;;;;;;37.17;23.53;;;4.40;99.90;;;;;;5031115;28;20172;-92
2021/01/11 03:58:47;;;;;;;33.20;23.13;;;4.40;99.90;;;;;;5014115;28;20184;-91
2021/01/11 04:01:13;;;;;;;48.10;25.40;;;4.30;99.90;;;;;;5022582;28;20207;-91
2021/01/11 04:03:39;;;;;;;38.07;24.73;;;4.30;99.90;;;;;;5049945;28;20168;-92
2021/01/11 04:06:05;;;;;;;35.73;23.67;;;4.30;99.90;;;;;;5033733;28;20514;-92
2021/01/11 04:08:32;;;;;;;36.30;23.10;;;4.30;99.90;;;;;;5033721;28;20223;-91
2021/01/11 04:10:58;;;;;;;39.90;24.67;;;4.20;99.90;;;;;;5033567;28;20176;-92
2021/01/11 04:13:24;;;;;;;37.47;23.77;;;4.20;99.90;;;;;;5033627;28;20180;-92
2021/01/11 04:15:49;;;;;;;35.77;23.50;;;4.20;99.90;;;;;;5050003;28;20203;-92
2021/01/11 04:18:15;;;;;;;38.53;23.43;;;4.20;99.90;;;;;;5037121;28;20178;-91
2021/01/11 04:20:41;;;;;;;35.13;24.87;;;4.20;99.90;;;;;;5034078;28;20185;-91
2021/01/11 04:23:06;;;;;;;39.03;24.67;;;4.30;99.90;;;;;;4984622;28;20303;-92
2021/01/11 04:25:33;;;;;;;37.87;24.07;;;4.30;99.90;;;;;;5019026;28;20619;-92
2021/01/11 04:28:00;;;;;;;36.30;22.87;;;4.30;99.90;;;;;;4984763;28;20227;-92
2021/01/11 04:30:27;;;;;;;34.90;22.63;;;4.30;99.90;;;;;;5033651;28;20172;-91
2021/01/11 04:32:53;;;;;;;31.90;22.57;;;4.30;99.90;;;;;;5033767;28;20181;-92
2021/01/11 04:35:25;;;;;;;33.07;22.07;;;4.40;99.90;;;;;;5017084;28;20546;-91
2021/01/11 04:37:50;;;;;;;33.17;22.40;;;4.30;99.90;;;;;;5033901;28;20180;-91
2021/01/11 04:40:16;;;;;;;30.47;21.93;;;4.30;99.90;;;;;;4984347;28;20180;-92
2021/01/11 04:42:47;;;;;;;30.03;21.67;;;4.30;99.90;;;;;;5016592;28;20262;-92
2021/01/11 04:45:18;;;;;;;31.23;21.93;;;4.30;99.90;;;;;;5016314;28;20185;-92
2021/01/11 04:47:44;;;;;;;32.17;20.83;;;4.40;99.90;;;;;;5017973;28;20165;-91
2021/01/11 04:50:11;;;;;;;32.43;21.00;;;4.50;99.90;;;;;;5033344;28;20179;-91
2021/01/11 04:52:38;;;;;;;28.03;19.87;;;4.50;99.90;;;;;;5017224;28;20177;-91
2021/01/11 04:55:07;;;;;;;31.13;21.60;;;4.40;99.90;;;;;;5033060;28;20192;-91
2021/01/11 04:57:39;;;;;;;29.23;19.83;;;4.50;99.90;;;;;;5032995;28;20226;-91
2021/01/11 05:00:10;;;;;;;27.40;20.13;;;4.40;99.90;;;;;;5016937;28;20311;-91
2021/01/11 05:02:43;;;;;;;26.47;20.13;;;4.40;99.90;;;;;;5033166;28;20342;-91
2021/01/11 05:05:13;;;;;;;27.87;19.43;;;4.30;99.90;;;;;;5048954;28;20156;-91
2021/01/11 05:07:39;;;;;;;27.03;19.10;;;4.30;99.90;;;;;;5021724;28;20180;-91
2021/01/11 05:10:06;;;;;;;29.87;20.03;;;4.30;99.90;;;;;;5020203;28;20180;-92
2021/01/11 05:12:33;;;;;;;27.60;19.70;;;4.30;99.90;;;;;;5034559;28;20177;-91
2021/01/11 05:15:15;;;;;;;27.00;19.83;;;4.40;99.90;;;;;;5017677;28;20180;-91
2021/01/11 05:17:43;;;;;;;27.50;19.67;;;4.40;99.90;;;;;;5000486;28;20181;-91
2021/01/11 05:20:10;;;;;;;27.03;19.53;;;4.30;99.90;;;;;;5016559;28;20172;-91
2021/01/11 05:22:36;;;;;;;25.47;20.30;;;4.30;99.90;;;;;;5041880;28;20239;-91
2021/01/11 05:25:19;;;;;;;29.43;20.03;;;4.20;99.90;;;;;;5051851;28;20180;-91
2021/01/11 05:27:47;;;;;;;26.40;20.57;;;4.30;99.90;;;;;;5012578;28;20219;-91
2021/01/11 05:30:30;;;;;;;28.17;19.90;;;4.20;99.90;;;;;;4999461;28;20177;-91
2021/01/11 05:32:55;;;;;;;27.80;18.23;;;4.20;99.90;;;;;;5035959;28;20210;-91
2021/01/11 05:35:23;;;;;;;28.53;19.63;;;4.20;99.90;;;;;;5036387;28;20202;-91
2021/01/11 05:37:51;;;;;;;22.83;17.67;;;4.20;99.90;;;;;;5018191;28;20173;-92
2021/01/11 05:40:22;;;;;;;26.23;19.37;;;4.20;99.90;;;;;;5032883;28;20169;-91
2021/01/11 05:42:51;;;;;;;23.67;18.30;;;4.20;99.90;;;;;;5048302;28;20192;-91
2021/01/11 05:45:30;;;;;;;24.87;18.83;;;4.30;99.90;;;;;;5015921;28;20181;-92
2021/01/11 05:48:06;;;;;;;25.83;19.13;;;4.30;99.90;;;;;;5000378;28;20169;-91
2021/01/11 05:50:33;;;;;;;28.07;18.23;;;4.30;99.90;;;;;;5016156;28;20606;-91
2021/01/11 05:52:59;;;;;;;29.17;18.23;;;4.30;99.90;;;;;;5016679;28;20189;-91
2021/01/11 05:55:29;;;;;;;22.70;17.80;;;4.30;99.90;;;;;;4999061;28;20177;-91
2021/01/11 05:58:00;;;;;;;22.23;18.33;;;4.20;99.90;;;;;;5017487;28;20197;-91
2021/01/11 06:00:28;;;;;;;27.27;19.50;;;4.20;99.90;;;;;;5000399;28;20249;-91
2021/01/11 06:02:55;;;;;;;24.23;19.00;;;4.20;99.90;;;;;;5016592;28;20199;-91
2021/01/11 06:05:22;;;;;;;29.03;19.93;;;4.10;99.90;;;;;;5017542;28;20173;-91
2021/01/11 06:07:48;;;;;;;24.93;19.23;;;4.10;99.90;;;;;;5015873;28;20180;-90
2021/01/11 06:10:16;;;;;;;25.00;18.40;;;4.10;99.90;;;;;;5015906;28;20615;-91
2021/01/11 06:12:44;;;;;;;26.37;19.50;;;4.20;99.90;;;;;;5015231;28;20188;-91
2021/01/11 06:15:12;;;;;;;25.33;19.30;;;4.20;99.90;;;;;;4999942;28;20180;-91
2021/01/11 06:17:43;;;;;;;26.20;19.97;;;4.20;99.90;;;;;;5017262;28;20206;-92
2021/01/11 06:20:16;;;;;;;30.10;20.07;;;4.30;99.90;;;;;;4999907;28;20180;-91
2021/01/11 06:22:45;;;;;;;25.07;18.93;;;4.30;99.90;;;;;;5016635;28;20197;-91
2021/01/11 06:25:20;;;;;;;24.40;19.37;;;4.40;99.90;;;;;;5019821;28;20180;-91
2021/01/11 06:27:52;;;;;;;24.17;19.03;;;4.40;99.90;;;;;;5015161;28;20180;-91
2021/01/11 06:30:40;;;;;;;28.07;19.43;;;4.40;99.90;;;;;;5021984;28;20634;-91
2021/01/11 06:33:06;;;;;;;24.77;19.50;;;4.40;99.90;;;;;;5051707;28;20178;-91
2021/01/11 06:35:33;;;;;;;25.27;18.40;;;4.40;99.90;;;;;;5035418;28;20191;-91
2021/01/11 06:38:20;;;;;;;23.37;18.83;;;4.30;99.90;;;;;;5051480;28;20251;-91
2021/01/11 06:41:13;;;;;;;30.03;20.07;;;4.30;99.90;;;;;;5031632;28;20580;-91
2021/01/11 06:43:50;;;;;;;26.00;19.70;;;4.30;99.90;;;;;;5019507;28;20185;-91
2021/01/11 06:46:28;;;;;;;26.43;19.63;;;4.30;99.90;;;;;;5015768;28;20175;-91
2021/01/11 06:49:08;;;;;;;25.70;19.43;;;4.40;99.90;;;;;;5015311;28;20177;-91
2021/01/11 06:51:51;;;;;;;25.90;19.30;;;4.40;99.90;;;;;;5016971;28;20172;-91
2021/01/11 06:54:17;;;;;;;26.13;19.13;;;4.30;99.90;;;;;;5054709;28;20180;-90
2021/01/11 06:56:45;;;;;;;26.80;19.57;;;4.30;99.90;;;;;;5021904;28;20188;-91
2021/01/11 06:59:18;;;;;;;26.67;18.63;;;4.30;99.90;;;;;;5022244;28;20173;-91
2021/01/11 07:01:45;;;;;;;26.27;19.00;;;4.30;99.90;;;;;;5038192;28;20189;-91
2021/01/11 07:04:35;;;;;;;27.47;19.40;;;4.20;99.90;;;;;;5038062;28;20176;-92
2021/01/11 07:07:01;;;;;;;26.30;18.50;;;4.20;99.90;;;;;;5019400;28;20173;-90
2021/01/11 07:09:28;;;;;;;22.50;17.63;;;4.30;99.90;;;;;;5017320;28;20200;-91
2021/01/11 07:12:02;;;;;;;27.70;18.60;;;4.30;99.90;;;;;;5016832;28;20212;-91
2021/01/11 07:14:54;;;;;;;22.93;17.80;;;4.40;99.90;;;;;;5016583;28;20181;-91
2021/01/11 07:17:42;;;;;;;22.07;17.43;;;4.50;99.90;;;;;;5018533;28;20164;-91
2021/01/11 07:20:16;;;;;;;20.73;17.43;;;4.40;99.90;;;;;;5016564;28;20200;-91
2021/01/11 07:22:43;;;;;;;27.30;17.47;;;4.40;99.90;;;;;;5020793;28;20269;-91
2021/01/11 07:25:22;;;;;;;26.10;17.77;;;4.40;99.90;;;;;;5035603;28;20186;-91
2021/01/11 07:27:53;;;;;;;27.03;16.57;;;4.30;99.90;;;;;;5048263;28;20168;-91
2021/01/11 07:30:19;;;;;;;23.40;17.30;;;4.30;99.90;;;;;;5015736;28;20580;-91
2021/01/11 07:32:51;;;;;;;21.63;17.27;;;4.30;99.90;;;;;;5031208;28;20204;-91
2021/01/11 07:35:17;;;;;;;28.33;17.80;;;4.30;99.90;;;;;;5007240;28;20252;-91
2021/01/11 07:37:42;;;;;;;21.97;15.97;;;4.30;99.90;;;;;;5034107;28;20176;-91
2021/01/11 07:40:09;;;;;;;24.30;17.70;;;4.30;99.90;;;;;;5035360;28;20173;-91
2021/01/11 07:42:36;;;;;;;23.87;17.53;;;4.30;99.90;;;;;;5005218;28;20201;-91
2021/01/11 07:45:10;;;;;;;25.40;17.30;;;4.30;99.90;;;;;;4998925;28;20181;-93
2021/01/11 07:47:40;;;;;;;35.47;19.83;;;4.40;99.90;;;;;;5021439;28;20267;-92
2021/01/11 07:50:07;;;;;;;34.83;18.60;;;4.40;99.90;;;;;;5034937;28;20168;-92
2021/01/11 07:52:33;;;;;;;33.80;20.80;;;4.50;99.90;;;;;;5020206;28;20646;-92
2021/01/11 07:55:04;;;;;;;33.53;21.50;;;4.50;99.90;;;;;;5053175;28;20197;-93
2021/01/11 07:57:31;;;;;;;34.87;21.60;;;4.50;99.90;;;;;;5047182;28;20239;-92
2021/01/11 08:00:06;;;;;;;39.73;22.00;;;4.40;99.90;;;;;;5043072;28;20175;-92
2021/01/11 08:02:33;;;;;;;38.00;20.90;;;4.50;99.90;;;;;;5057217;28;20644;-92
2021/01/11 08:04:59;;;;;;;38.40;21.33;;;4.50;99.90;;;;;;5025290;28;20179;-93
2021/01/11 08:07:32;;;;;;;35.70;21.97;;;4.40;99.90;;;;;;5041027;28;20625;-92
2021/01/11 08:09:59;;;;;;;33.33;20.10;;;4.40;99.90;;;;;;5005786;28;20290;-93
2021/01/11 08:12:29;;;;;;;32.93;19.67;;;4.50;99.90;;;;;;5037509;28;20168;-92
2021/01/11 08:15:09;;;;;;;31.33;20.90;;;4.50;99.90;;;;;;5021097;28;20177;-92
2021/01/11 08:17:41;;;;;;;35.00;21.40;;;4.60;99.90;;;;;;5027449;28;20168;-93
2021/01/11 08:20:08;;;;;;;33.40;20.83;;;4.70;99.90;;;;;;5017947;28;20607;-93
2021/01/11 08:22:34;;;;;;;37.63;22.03;;;4.60;99.90;;;;;;4985148;28;20644;-92
2021/01/11 08:25:00;;;;;;;44.23;22.87;;;4.60;99.90;;;;;;5018211;28;20176;-92
2021/01/11 08:27:26;;;;;;;39.73;22.53;;;4.50;99.90;;;;;;4994551;28;20298;-90
2021/01/11 08:29:53;;;;;;;37.40;22.47;;;4.50;99.90;;;;;;5018933;28;20725;-91
2021/01/11 08:32:19;;;;;;;40.77;21.40;;;4.40;99.90;;;;;;5034208;28;20177;-91
2021/01/11 08:34:45;;;;;;;34.97;21.17;;;4.50;99.90;;;;;;5017350;28;20200;-90
2021/01/11 08:37:28;;;;;;;39.47;22.27;;;4.60;99.90;;;;;;5023129;28;20176;-90
2021/01/11 08:40:11;;;;;;;36.27;21.53;;;4.60;99.90;;;;;;5017989;28;20149;-90
2021/01/11 08:42:38;;;;;;;35.07;20.97;;;4.60;99.90;;;;;;5018442;28;20207;-90
2021/01/11 08:45:23;;;;;;;32.13;19.97;;;4.60;99.90;;;;;;5005520;28;20187;-90
2021/01/11 08:48:08;;;;;;;37.37;19.43;;;4.60;99.90;;;;;;5036675;28;20182;-90
2021/01/11 08:50:41;;;;;;;37.93;20.83;;;4.70;99.90;;;;;;5037418;28;20626;-90
2021/01/11 08:53:36;;;;;;;35.70;20.20;;;4.60;99.90;;;;;;5053939;28;20202;-90
2021/01/11 08:56:04;;;;;;;33.27;20.30;;;4.60;99.90;;;;;;5041889;28;20161;-91
2021/01/11 08:58:34;;;;;;;30.87;19.37;;;4.60;99.90;;;;;;5016398;28;20172;-91
2021/01/11 09:01:17;;;;;;;32.60;18.13;;;4.50;99.90;;;;;;5000450;28;20292;-91
2021/01/11 09:03:50;;;;;;;31.80;19.23;;;4.60;99.90;;;;;;5017020;28;20161;-90
2021/01/11 09:06:41;;;;;;;28.70;18.57;;;4.70;99.90;;;;;;5033459;28;20184;-90
2021/01/11 09:09:19;;;;;;;28.33;17.03;;;4.80;99.90;;;;;;5034116;28;20307;-90
2021/01/11 09:11:58;;;;;;;30.60;19.20;;;4.90;99.90;;;;;;5040106;28;20165;-91
2021/01/11 09:14:24;;;;;;;29.83;18.97;;;4.90;99.90;;;;;;5009857;28;20210;-90
2021/01/11 09:16:57;;;;;;;29.37;18.13;;;4.90;99.90;;;;;;5018070;28;20177;-90
2021/01/11 09:19:22;;;;;;;33.90;17.57;;;4.90;99.90;;;;;;5018531;28;20674;-91
2021/01/11 09:22:15;;;;;;;31.37;18.43;;;5.00;99.90;;;;;;5001008;28;20238;-91
2021/01/11 09:24:42;;;;;;;27.73;18.53;;;5.00;99.90;;;;;;5052246;28;20160;-91
2021/01/11 09:27:08;;;;;;;31.10;17.73;;;5.00;99.90;;;;;;5035702;28;20218;-91
2021/01/11 09:29:34;;;;;;;27.43;17.17;;;5.10;99.90;;;;;;5036153;28;20495;-91
2021/01/11 09:31:59;;;;;;;26.13;15.70;;;5.10;99.90;;;;;;5034658;28;20219;-91
2021/01/11 09:34:25;;;;;;;20.57;15.70;;;5.20;99.90;;;;;;5019203;28;20222;-91
2021/01/11 09:36:51;;;;;;;30.63;14.93;;;5.20;99.90;;;;;;5035713;28;21042;-90
2021/01/11 09:39:17;;;;;;;20.73;14.37;;;5.30;99.90;;;;;;5020951;28;20618;-91
2021/01/11 09:41:54;;;;;;;23.47;15.13;;;5.40;99.90;;;;;;5036789;28;20212;-90
2021/01/11 09:44:20;;;;;;;26.37;14.10;;;5.40;99.90;;;;;;5036465;28;20184;-91
2021/01/11 09:46:54;;;;;;;15.70;14.00;;;5.40;99.90;;;;;;5035908;28;20267;-89
2021/01/11 09:49:20;;;;;;;17.23;13.27;;;5.40;99.90;;;;;;5016743;28;20208;-90
2021/01/11 09:51:49;;;;;;;16.27;13.57;;;5.30;99.90;;;;;;5032716;28;20188;-91
2021/01/11 09:54:14;;;;;;;15.70;13.80;;;5.30;99.90;;;;;;5051662;28;20176;-91
2021/01/11 09:56:40;;;;;;;18.17;12.73;;;5.30;99.90;;;;;;5044284;28;20199;-91
2021/01/11 09:59:08;;;;;;;16.47;13.03;;;5.30;99.90;;;;;;5007156;28;20315;-90
2021/01/11 10:01:42;;;;;;;14.77;13.17;;;5.40;99.90;;;;;;5014931;28;20201;-91
2021/01/11 10:04:09;;;;;;;21.23;12.83;;;5.40;99.90;;;;;;5016681;28;20348;-91
2021/01/11 10:06:43;;;;;;;15.60;12.70;;;5.40;99.90;;;;;;5025656;28;20179;-90
2021/01/11 10:09:13;;;;;;;21.80;12.77;;;5.50;99.90;;;;;;5051755;28;20175;-91
2021/01/11 10:11:39;;;;;;;14.63;12.70;;;5.50;99.90;;;;;;5052232;28;20183;-90
2021/01/11 10:14:06;;;;;;;16.40;13.30;;;5.50;99.90;;;;;;5051617;28;20259;-90
2021/01/11 10:16:33;;;;;;;17.00;13.60;;;5.50;99.90;;;;;;5018568;28;20251;-90
2021/01/11 10:18:59;;;;;;;15.90;12.57;;;5.50;99.90;;;;;;5027897;28;20639;-90
2021/01/11 10:21:26;;;;;;;16.53;13.07;;;5.50;99.90;;;;;;5030995;28;20212;-90
2021/01/11 10:23:51;;;;;;;16.73;13.07;;;5.50;99.90;;;;;;5016272;28;20206;-90
2021/01/11 10:26:19;;;;;;;18.57;14.00;;;5.40;99.90;;;;;;5031244;28;20688;-90
2021/01/11 10:28:45;;;;;;;19.17;14.23;;;5.40;99.90;;;;;;5016629;28;20183;-91
2021/01/11 10:31:11;;;;;;;16.57;13.70;;;5.40;99.90;;;;;;5031583;28;20200;-90
2021/01/11 10:33:36;;;;;;;21.10;15.57;;;5.40;99.90;;;;;;5014647;28;20191;-91
2021/01/11 10:36:03;;;;;;;26.40;15.43;;;5.40;99.90;;;;;;4998594;28;20173;-90
2021/01/11 10:38:28;;;;;;;20.17;14.27;;;5.40;99.90;;;;;;5031644;28;20275;-91
2021/01/11 10:40:54;;;;;;;18.50;14.87;;;5.50;99.90;;;;;;5031714;28;20206;-91
2021/01/11 10:43:30;;;;;;;16.43;14.00;;;5.50;99.90;;;;;;5034755;28;20179;-90
2021/01/11 10:45:56;;;;;;;19.67;14.20;;;5.60;99.90;;;;;;5035182;28;20523;-91
2021/01/11 10:48:24;;;;;;;19.17;14.90;;;5.60;99.90;;;;;;5015305;28;20196;-88
2021/01/11 10:50:50;;;;;;;16.30;13.53;;;5.70;99.90;;;;;;5014900;28;20264;-90
2021/01/11 10:53:18;;;;;;;17.63;13.60;;;5.80;99.90;;;;;;5015139;28;20215;-91
2021/01/11 10:55:44;;;;;;;21.07;14.63;;;5.70;99.90;;;;;;5034154;28;20190;-91
2021/01/11 10:58:10;;;;;;;20.23;14.37;;;5.80;99.90;;;;;;5030540;28;20177;-90
2021/01/11 11:00:36;;;;;;;18.47;13.90;;;5.80;99.90;;;;;;5022733;28;20609;-91
2021/01/11 11:03:06;;;;;;;23.00;14.67;;;5.80;99.90;;;;;;5014665;28;20219;-90
2021/01/11 11:05:33;;;;;;;19.10;14.27;;;5.70;99.90;;;;;;5016882;28;20267;-90
2021/01/11 11:08:06;;;;;;;17.30;14.07;;;5.80;99.90;;;;;;5026834;28;20180;-91
2021/01/11 11:10:31;;;;;;;19.43;13.47;;;5.70;99.90;;;;;;5039858;28;20237;-90
2021/01/11 11:12:59;;;;;;;20.50;13.17;;;5.70;99.90;;;;;;5014406;28;20172;-91
2021/01/11 11:15:27;;;;;;;21.77;14.07;;;5.60;99.90;;;;;;5029674;28;20184;-91
2021/01/11 11:17:53;;;;;;;19.00;14.60;;;5.60;99.90;;;;;;5030710;28;20184;-90
2021/01/11 11:20:19;;;;;;;25.80;15.27;;;5.60;99.90;;;;;;4998369;28;20169;-90
2021/01/11 11:22:45;;;;;;;22.40;15.83;;;5.60;99.90;;;;;;5016429;28;20196;-90
2021/01/11 11:25:21;;;;;;;23.13;15.37;;;5.70;99.90;;;;;;5031870;28;20543;-91
2021/01/11 11:27:49;;;;;;;19.57;14.07;;;5.90;99.90;;;;;;5052098;28;20171;-90
2021/01/11 11:30:16;;;;;;;23.40;15.10;;;6.00;99.90;;;;;;5053229;28;20172;-91
2021/01/11 11:32:50;;;;;;;25.60;15.47;;;6.10;99.90;;;;;;5038379;28;20191;-91
2021/01/11 11:35:22;;;;;;;23.33;14.13;;;6.40;99.90;;;;;;5043102;28;20251;-90
2021/01/11 11:37:48;;;;;;;21.23;14.60;;;6.50;99.90;;;;;;5032908;28;20172;-92
2021/01/11 11:40:16;;;;;;;17.77;13.77;;;6.50;99.90;;;;;;5015649;28;20185;-90
2021/01/11 11:42:43;;;;;;;20.60;14.13;;;6.50;99.90;;;;;;5031615;28;20228;-91
2021/01/11 11:45:11;;;;;;;18.73;13.87;;;6.50;99.90;;;;;;5031096;28;20181;-91
2021/01/11 11:47:37;;;;;;;19.27;13.27;;;6.50;99.90;;;;;;5015385;28;20173;-91
2021/01/11 11:50:05;;;;;;;18.53;13.87;;;6.40;99.90;;;;;;5027594;28;20173;-91
2021/01/11 11:52:31;;;;;;;23.23;14.67;;;6.30;99.90;;;;;;5033176;28;20192;-92
2021/01/11 11:54:57;;;;;;;22.80;16.03;;;6.30;99.90;;;;;;5051587;28;20184;-91
2021/01/11 11:57:22;;;;;;;20.73;14.97;;;6.20;99.90;;;;;;5020061;28;20176;-92
2021/01/11 11:59:48;;;;;;;21.07;15.93;;;6.20;99.90;;;;;;5002799;28;20610;-91
2021/01/11 12:02:14;;;;;;;20.37;15.43;;;6.30;99.90;;;;;;5037329;28;20216;-91
2021/01/11 12:04:41;;;;;;;22.07;16.10;;;6.20;99.90;;;;;;5035785;28;20744;-91
2021/01/11 12:07:07;;;;;;;20.70;15.60;;;6.10;99.90;;;;;;5055164;28;20179;-91
2021/01/11 12:09:35;;;;;;;26.10;16.60;;;6.00;99.90;;;;;;5058609;28;20173;-92
2021/01/11 12:12:01;;;;;;;28.30;20.13;;;6.00;99.90;;;;;;5047317;28;20484;-90
2021/01/11 12:14:29;;;;;;;27.57;18.20;;;6.10;99.90;;;;;;4986385;28;20311;-91
2021/01/11 12:16:55;;;;;;;27.27;18.33;;;6.10;99.90;;;;;;5014055;28;20172;-91
2021/01/11 12:19:21;;;;;;;30.63;20.40;;;6.10;99.90;;;;;;5014070;28;20227;-91
2021/01/11 12:21:46;;;;;;;27.00;19.50;;;6.20;99.90;;;;;;5011771;28;20211;-85
2021/01/11 12:24:12;;;;;;;29.23;19.73;;;6.20;99.90;;;;;;5037810;28;20179;-91
2021/01/11 12:26:42;;;;;;;29.80;21.33;;;6.10;99.90;;;;;;5031523;28;20614;-92
2021/01/11 12:29:09;;;;;;;28.67;20.07;;;6.10;99.90;;;;;;5030383;28;20169;-92
2021/01/11 12:31:35;;;;;;;28.33;19.37;;;6.00;99.90;;;;;;5029934;28;20285;-91
2021/01/11 12:34:01;;;;;;;26.60;18.67;;;6.00;99.90;;;;;;5030917;28;20203;-90
2021/01/11 12:36:29;;;;;;;30.63;19.93;;;6.10;99.90;;;;;;5015767;28;20661;-93
2021/01/11 12:38:56;;;;;;;25.53;18.27;;;6.10;99.90;;;;;;5034326;28;20681;-92
2021/01/11 12:41:26;;;;;;;28.63;19.73;;;6.20;99.90;;;;;;5034444;28;20605;-92
2021/01/11 12:43:52;;;;;;;32.97;19.93;;;6.20;99.90;;;;;;5017222;28;20177;-92
2021/01/11 12:46:20;;;;;;;26.30;19.73;;;6.30;99.90;;;;;;4985353;28;20180;-92